createdAt,value
2018-09-29T00:00:29.528Z,99.90
2018-09-29T00:02:58.829Z,99.90
2018-09-29T00:05:27.557Z,99.90
2018-09-29T00:07:56.578Z,99.90
2018-09-29T00:10:25.343Z,99.90
2018-09-29T00:12:54.133Z,99.90
2018-09-29T00:15:22.697Z,99.90
2018-09-29T00:17:51.271Z,99.90
2018-09-29T00:20:19.951Z,99.90
2018-09-29T00:22:48.577Z,99.90
2018-09-29T00:25:17.218Z,99.90
2018-09-29T00:27:45.811Z,99.90
2018-09-29T00:30:14.351Z,99.90
2018-09-29T00:32:42.896Z,99.90
2018-09-29T00:35:11.741Z,99.90
2018-09-29T00:37:40.287Z,99.90
2018-09-29T00:40:09.402Z,99.90
2018-09-29T00:42:37.970Z,99.90
2018-09-29T00:45:06.711Z,99.90
2018-09-29T00:47:35.596Z,99.90
2018-09-29T00:50:04.247Z,99.90
2018-09-29T00:52:32.825Z,99.90
2018-09-29T00:55:01.383Z,99.90
2018-09-29T00:57:30.075Z,99.90
2018-09-29T00:59:58.637Z,99.90
2018-09-29T01:02:27.191Z,99.90
2018-09-29T01:04:55.763Z,99.90
2018-09-29T01:07:24.460Z,99.90
2018-09-29T01:09:53.239Z,99.90
2018-09-29T01:12:21.805Z,99.90
2018-09-29T01:14:50.545Z,99.90
2018-09-29T01:17:19.128Z,99.90
2018-09-29T01:19:47.697Z,99.90
2018-09-29T01:22:16.207Z,99.90
2018-09-29T01:24:44.945Z,99.90
2018-09-29T01:27:14.067Z,99.90
2018-09-29T01:29:43.234Z,99.90
2018-09-29T01:32:11.812Z,99.90
2018-09-29T01:34:40.522Z,99.90
2018-09-29T01:37:09.282Z,99.90
2018-09-29T01:39:37.830Z,99.90
2018-09-29T01:42:06.425Z,99.90
2018-09-29T01:44:35.022Z,99.90
2018-09-29T01:47:03.616Z,99.90
2018-09-29T01:49:32.186Z,99.90
2018-09-29T01:52:00.813Z,99.90
2018-09-29T01:54:29.996Z,99.90
2018-09-29T01:56:58.559Z,99.90
2018-09-29T01:59:27.173Z,99.90
2018-09-29T02:01:55.743Z,99.90
2018-09-29T02:04:24.357Z,99.90
2018-09-29T02:06:52.888Z,99.90
2018-09-29T02:09:21.476Z,99.90
2018-09-29T02:11:50.166Z,99.90
2018-09-29T02:14:18.766Z,99.90
2018-09-29T02:16:48.437Z,99.90
2018-09-29T02:19:17.265Z,99.90
2018-09-29T02:21:47.806Z,99.90
2018-09-29T02:27:40.279Z,99.90
2018-09-29T02:30:09.141Z,99.90
2018-09-29T02:32:37.886Z,99.90
2018-09-29T02:35:06.907Z,99.90
2018-09-29T02:37:35.515Z,99.90
2018-09-29T02:40:04.150Z,99.90
2018-09-29T02:42:32.784Z,99.90
2018-09-29T02:45:01.422Z,99.90
2018-09-29T02:47:30.056Z,99.90
2018-09-29T02:49:58.645Z,99.90
2018-09-29T02:52:27.551Z,99.90
2018-09-29T02:54:56.099Z,99.90
2018-09-29T02:57:24.683Z,99.90
2018-09-29T02:59:53.499Z,99.90
2018-09-29T03:02:22.158Z,99.90
2018-09-29T03:04:50.774Z,99.90
2018-09-29T03:07:19.354Z,99.90
2018-09-29T03:09:48.126Z,99.90
2018-09-29T03:12:16.946Z,99.90
2018-09-29T03:14:45.552Z,99.90
2018-09-29T03:17:14.397Z,99.90
2018-09-29T03:19:42.915Z,99.90
2018-09-29T03:22:11.489Z,99.90
2018-09-29T03:24:40.234Z,99.90
2018-09-29T03:27:08.802Z,99.90
2018-09-29T03:29:37.423Z,99.90
2018-09-29T03:32:06.078Z,99.90
2018-09-29T03:34:34.787Z,99.90
2018-09-29T03:37:03.572Z,99.90
2018-09-29T03:39:32.161Z,99.90
2018-09-29T03:42:00.906Z,99.90
2018-09-29T03:44:29.555Z,99.90
2018-09-29T03:46:58.274Z,99.90
2018-09-29T03:49:27.008Z,99.90
2018-09-29T03:51:55.588Z,99.90
2018-09-29T03:54:24.121Z,99.90
2018-09-29T03:56:52.672Z,99.90
2018-09-29T03:59:21.382Z,99.90
2018-09-29T04:01:49.950Z,99.90
2018-09-29T04:04:19.345Z,99.90
2018-09-29T04:06:47.932Z,99.90
2018-09-29T04:09:16.644Z,99.90
2018-09-29T04:11:45.208Z,99.90
2018-09-29T04:14:14.488Z,99.90
2018-09-29T04:16:43.331Z,99.90
2018-09-29T04:19:12.146Z,99.90
2018-09-29T04:21:46.496Z,99.90
2018-09-29T04:24:16.343Z,99.90
2018-09-29T04:26:45.034Z,99.90
2018-09-29T04:29:15.276Z,99.90
2018-09-29T04:31:44.324Z,99.90
2018-09-29T04:34:13.893Z,99.90
2018-09-29T04:36:43.216Z,99.90
2018-09-29T04:39:13.283Z,99.90
2018-09-29T04:41:42.138Z,99.90
2018-09-29T04:44:11.307Z,99.90
2018-09-29T04:46:40.954Z,99.90
2018-09-29T04:49:09.594Z,99.90
2018-09-29T04:51:38.133Z,99.90
2018-09-29T04:54:07.210Z,99.90
2018-09-29T04:56:35.802Z,99.90
2018-09-29T04:59:04.357Z,99.90
2018-09-29T05:01:32.894Z,99.90
2018-09-29T05:04:01.437Z,99.90
2018-09-29T05:06:30.029Z,99.90
2018-09-29T05:08:58.850Z,99.90
2018-09-29T05:11:27.432Z,99.90
2018-09-29T05:13:55.976Z,99.90
2018-09-29T05:16:24.614Z,99.90
2018-09-29T05:18:53.337Z,99.90
2018-09-29T05:21:21.968Z,99.90
2018-09-29T05:23:50.639Z,99.90
2018-09-29T05:26:19.183Z,99.90
2018-09-29T05:28:47.689Z,99.90
2018-09-29T05:31:16.198Z,99.90
2018-09-29T05:33:44.680Z,99.90
2018-09-29T05:36:13.116Z,99.90
2018-09-29T05:38:41.883Z,99.90
2018-09-29T05:41:10.369Z,99.90
2018-09-29T05:43:38.992Z,99.90
2018-09-29T05:46:07.497Z,99.90
2018-09-29T05:48:35.973Z,99.90
2018-09-29T05:51:04.537Z,99.90
2018-09-29T05:53:33.220Z,99.90
2018-09-29T05:56:01.926Z,99.90
2018-09-29T05:58:30.942Z,99.90
2018-09-29T06:00:59.479Z,99.90
2018-09-29T06:03:27.927Z,99.90
2018-09-29T06:05:56.842Z,99.90
2018-09-29T06:08:25.250Z,99.90
2018-09-29T06:10:53.771Z,99.90
2018-09-29T06:13:22.241Z,99.90
2018-09-29T06:15:50.887Z,99.90
2018-09-29T06:18:19.362Z,99.90
2018-09-29T06:20:47.964Z,99.90
2018-09-29T06:23:16.553Z,99.90
2018-09-29T06:25:45.118Z,99.90
2018-09-29T06:28:13.589Z,99.90
2018-09-29T06:30:42.054Z,99.90
2018-09-29T06:33:10.767Z,99.90
2018-09-29T06:35:39.386Z,99.90
2018-09-29T06:38:07.935Z,99.90
2018-09-29T06:40:36.947Z,99.90
2018-09-29T06:43:05.407Z,99.90
2018-09-29T06:45:33.987Z,99.90
2018-09-29T06:48:02.628Z,99.90
2018-09-29T06:50:31.378Z,95.60
2018-09-29T06:52:59.838Z,84.60
2018-09-29T06:55:29.425Z,75.10
2018-09-29T06:57:57.900Z,67.90
2018-09-29T07:00:26.354Z,61.10
2018-09-29T07:02:54.877Z,56.10
2018-09-29T07:05:23.447Z,54.40
2018-09-29T07:07:52.017Z,51.60
2018-09-29T07:10:21.191Z,51.90
2018-09-29T07:12:49.865Z,51.50
2018-09-29T07:15:18.371Z,51.00
2018-09-29T07:17:47.023Z,49.80
2018-09-29T07:20:15.596Z,50.20
2018-09-29T07:22:44.292Z,48.40
2018-09-29T07:25:12.735Z,51.30
2018-09-29T07:27:41.179Z,50.10
2018-09-29T07:30:09.669Z,49.80
2018-09-29T07:32:38.320Z,49.20
2018-09-29T07:35:06.862Z,47.30
2018-09-29T07:37:35.345Z,48.90
2018-09-29T07:40:03.872Z,47.90
2018-09-29T07:42:32.435Z,46.00
2018-09-29T07:45:00.963Z,45.80
2018-09-29T07:47:29.628Z,46.90
2018-09-29T07:49:58.106Z,46.50
2018-09-29T07:52:26.586Z,48.70
2018-09-29T07:54:55.278Z,51.50
2018-09-29T07:57:23.759Z,53.20
2018-09-29T07:59:52.309Z,52.20
2018-09-29T08:02:20.787Z,50.10
2018-09-29T08:04:49.361Z,49.00
2018-09-29T08:07:17.843Z,50.60
2018-09-29T08:09:46.362Z,53.00
2018-09-29T08:12:14.954Z,51.70
2018-09-29T08:14:43.573Z,53.40
2018-09-29T08:17:12.051Z,55.10
2018-09-29T08:19:40.791Z,56.00
2018-09-29T08:22:09.763Z,54.20
2018-09-29T08:24:38.267Z,52.80
2018-09-29T08:27:07.378Z,53.70
2018-09-29T08:29:35.814Z,55.20
2018-09-29T08:32:04.371Z,54.30
2018-09-29T08:34:32.954Z,52.40
2018-09-29T08:37:01.543Z,52.00
2018-09-29T08:39:30.292Z,51.40
2018-09-29T08:41:58.737Z,50.70
2018-09-29T08:44:27.354Z,50.90
2018-09-29T08:46:55.878Z,52.40
2018-09-29T08:49:24.653Z,52.70
2018-09-29T08:51:53.193Z,55.30
2018-09-29T08:54:21.799Z,55.50
2018-09-29T08:56:50.409Z,56.40
2018-09-29T08:59:18.989Z,57.00
2018-09-29T09:01:47.639Z,58.70
2018-09-29T09:04:16.992Z,59.70
2018-09-29T09:06:47.054Z,61.20
2018-09-29T09:09:15.648Z,62.50
2018-09-29T09:11:44.824Z,62.40
2018-09-29T09:14:13.918Z,62.90
2018-09-29T09:16:42.484Z,63.70
2018-09-29T09:19:10.947Z,64.30
2018-09-29T09:21:39.928Z,63.90
2018-09-29T09:24:09.604Z,66.20
2018-09-29T09:26:38.271Z,65.20
2018-09-29T09:29:07.301Z,65.80
2018-09-29T09:31:35.830Z,65.50
2018-09-29T09:34:04.463Z,65.40
2018-09-29T09:36:33.010Z,64.80
2018-09-29T09:39:01.551Z,66.30
2018-09-29T09:41:30.080Z,64.80
2018-09-29T09:43:58.659Z,65.40
2018-09-29T09:46:28.065Z,66.20
2018-09-29T09:48:56.542Z,67.80
2018-09-29T09:51:25.422Z,65.80
2018-09-29T09:53:53.905Z,64.50
2018-09-29T09:56:22.546Z,65.30
2018-09-29T09:58:51.029Z,63.30
2018-09-29T10:02:27.714Z,64.10
2018-09-29T10:04:56.242Z,61.90
2018-09-29T10:07:24.732Z,63.00
2018-09-29T10:09:53.236Z,64.00
2018-09-29T10:12:21.722Z,64.80
2018-09-29T10:14:50.501Z,63.90
2018-09-29T10:17:19.330Z,65.10
2018-09-29T10:19:47.890Z,64.60
2018-09-29T10:22:16.411Z,62.80
2018-09-29T10:24:44.996Z,58.50
2018-09-29T10:27:13.456Z,61.70
2018-09-29T10:29:41.920Z,62.00
2018-09-29T10:32:10.473Z,60.30
2018-09-29T10:34:38.970Z,63.00
2018-09-29T10:37:07.470Z,63.10
2018-09-29T10:39:36.014Z,62.00
2018-09-29T10:42:04.501Z,62.90
2018-09-29T10:44:32.984Z,60.80
2018-09-29T10:47:01.521Z,62.90
2018-09-29T10:49:30.311Z,62.40
2018-09-29T10:51:58.946Z,63.80
2018-09-29T10:54:27.442Z,64.80
2018-09-29T10:56:55.929Z,64.20
2018-09-29T10:59:24.602Z,63.30
2018-09-29T11:01:53.117Z,64.50
2018-09-29T11:04:22.317Z,63.10
2018-09-29T11:06:50.787Z,62.40
2018-09-29T11:09:19.306Z,63.00
2018-09-29T11:11:47.808Z,60.40
2018-09-29T11:14:17.255Z,60.80
2018-09-29T11:16:45.758Z,62.70
2018-09-29T11:19:14.226Z,63.10
2018-09-29T11:21:42.854Z,63.40
2018-09-29T11:24:11.422Z,65.10
2018-09-29T11:26:40.015Z,64.20
2018-09-29T11:29:08.628Z,64.60
2018-09-29T11:31:37.260Z,63.90
2018-09-29T11:34:06.033Z,63.90
2018-09-29T11:36:34.727Z,61.60
2018-09-29T11:39:04.142Z,60.60
2018-09-29T11:41:33.604Z,61.20
2018-09-29T11:44:02.220Z,59.80
2018-09-29T11:46:30.842Z,63.20
2018-09-29T11:48:59.400Z,61.80
2018-09-29T11:51:27.945Z,60.70
2018-09-29T11:53:56.465Z,62.10
2018-09-29T11:56:25.371Z,65.20
2018-09-29T11:58:53.956Z,63.90
2018-09-29T12:01:22.895Z,62.80
2018-09-29T12:03:51.441Z,62.10
2018-09-29T12:06:20.247Z,63.30
2018-09-29T12:08:48.839Z,63.60
2018-09-29T12:11:17.758Z,63.90
2018-09-29T12:13:46.342Z,64.20
2018-09-29T12:16:15.473Z,62.20
2018-09-29T12:18:44.166Z,64.30
2018-09-29T12:21:13.657Z,60.30
2018-09-29T12:23:42.236Z,62.50
2018-09-29T12:26:10.809Z,62.20
2018-09-29T12:28:39.305Z,58.60
2018-09-29T12:31:08.066Z,56.70
2018-09-29T12:33:36.852Z,55.60
2018-09-29T12:36:05.539Z,56.50
2018-09-29T12:38:34.086Z,57.70
2018-09-29T12:41:02.601Z,59.40
2018-09-29T12:43:31.063Z,61.00
2018-09-29T12:45:59.565Z,59.60
2018-09-29T12:48:28.737Z,59.40
2018-09-29T12:50:57.205Z,59.40
2018-09-29T12:53:25.654Z,61.90
2018-09-29T12:55:54.135Z,62.20
2018-09-29T12:58:22.615Z,61.20
2018-09-29T13:00:51.610Z,62.60
2018-09-29T13:03:20.271Z,61.40
2018-09-29T13:05:49.158Z,61.60
2018-09-29T13:08:17.641Z,62.00
2018-09-29T13:10:46.197Z,63.00
2018-09-29T13:13:14.692Z,63.30
2018-09-29T13:15:43.151Z,63.80
2018-09-29T13:18:11.695Z,63.40
2018-09-29T13:20:40.147Z,61.70
2018-09-29T13:23:08.639Z,62.80
2018-09-29T13:25:37.126Z,62.00
2018-09-29T13:28:05.729Z,62.30
2018-09-29T13:30:34.206Z,64.00
2018-09-29T13:33:02.702Z,60.00
2018-09-29T13:35:31.181Z,58.80
2018-09-29T13:37:59.698Z,60.50
2018-09-29T13:40:28.202Z,60.40
2018-09-29T13:42:56.738Z,61.10
2018-09-29T13:45:25.226Z,61.10
2018-09-29T13:47:53.829Z,58.80
2018-09-29T13:50:22.381Z,59.50
2018-09-29T13:52:50.908Z,61.30
2018-09-29T13:55:19.377Z,62.30
2018-09-29T13:57:47.861Z,63.70
2018-09-29T14:00:16.318Z,64.50
2018-09-29T14:02:44.805Z,64.10
2018-09-29T14:05:13.322Z,63.60
2018-09-29T14:07:42.086Z,61.40
2018-09-29T14:10:10.586Z,61.10
2018-09-29T14:12:39.459Z,62.00
2018-09-29T14:15:08.181Z,61.30
2018-09-29T14:17:36.668Z,64.60
2018-09-29T14:20:06.264Z,62.20
2018-09-29T14:22:34.769Z,60.80
2018-09-29T14:25:03.556Z,65.30
2018-09-29T14:27:32.026Z,62.50
2018-09-29T14:30:00.724Z,62.40
2018-09-29T14:32:29.590Z,62.60
2018-09-29T14:34:58.609Z,61.90
2018-09-29T14:37:27.603Z,62.40
2018-09-29T14:39:56.081Z,63.80
2018-09-29T14:42:24.646Z,63.80
2018-09-29T14:44:53.651Z,65.60
2018-09-29T14:47:22.304Z,64.50
2018-09-29T14:49:51.671Z,60.70
2018-09-29T14:52:20.568Z,61.70
2018-09-29T14:54:49.708Z,62.30
2018-09-29T14:57:18.691Z,62.60
2018-09-29T14:59:47.594Z,63.90
2018-09-29T15:02:16.536Z,64.70
2018-09-29T15:04:45.466Z,62.40
2018-09-29T15:07:14.373Z,62.20
2018-09-29T15:09:43.363Z,61.40
2018-09-29T15:12:12.171Z,61.70
2018-09-29T15:14:41.150Z,60.70
2018-09-29T15:17:09.803Z,60.60
2018-09-29T15:19:38.574Z,60.60
2018-09-29T15:22:07.641Z,60.40
2018-09-29T15:24:36.314Z,59.30
2018-09-29T15:27:05.182Z,59.80
2018-09-29T15:29:34.168Z,60.70
2018-09-29T15:32:03.545Z,61.30
2018-09-29T15:34:32.222Z,60.60
2018-09-29T15:37:01.348Z,61.20
2018-09-29T15:39:30.272Z,61.00
2018-09-29T15:41:59.001Z,62.60
2018-09-29T15:44:27.482Z,63.40
2018-09-29T15:46:56.166Z,63.10
2018-09-29T15:49:24.635Z,63.50
2018-09-29T15:51:53.110Z,62.90
2018-09-29T15:54:21.708Z,62.60
2018-09-29T15:56:50.160Z,64.30
2018-09-29T15:59:18.707Z,65.00
2018-09-29T16:01:47.289Z,64.80
2018-09-29T16:04:15.783Z,64.50
2018-09-29T16:06:44.290Z,65.20
2018-09-29T16:09:12.753Z,65.70
2018-09-29T16:11:42.411Z,65.70
2018-09-29T16:14:10.902Z,65.70
2018-09-29T16:16:39.393Z,66.60
2018-09-29T16:19:07.833Z,65.80
2018-09-29T16:21:36.384Z,65.50
2018-09-29T16:24:04.833Z,66.30
2018-09-29T16:26:33.434Z,66.10
2018-09-29T16:29:02.218Z,66.60
2018-09-29T16:31:30.708Z,68.10
2018-09-29T16:33:59.283Z,69.80
2018-09-29T16:36:27.986Z,68.20
2018-09-29T16:38:56.590Z,68.60
2018-09-29T16:41:25.098Z,69.50
2018-09-29T16:43:53.643Z,69.20
2018-09-29T16:46:22.203Z,69.30
2018-09-29T16:48:50.702Z,69.40
2018-09-29T16:51:19.218Z,69.60
2018-09-29T16:53:47.703Z,69.70
2018-09-29T16:56:16.178Z,71.20
2018-09-29T16:58:44.813Z,71.50
2018-09-29T17:01:14.110Z,71.40
2018-09-29T17:03:43.187Z,71.40
2018-09-29T17:06:11.974Z,71.80
2018-09-29T17:08:40.494Z,72.40
2018-09-29T17:11:08.987Z,72.40
2018-09-29T17:13:37.534Z,72.50
2018-09-29T17:16:06.411Z,73.20
2018-09-29T17:18:35.143Z,73.20
2018-09-29T17:21:03.693Z,73.90
2018-09-29T17:23:32.197Z,74.00
2018-09-29T17:26:00.733Z,73.90
2018-09-29T17:28:29.275Z,74.40
2018-09-29T17:30:58.514Z,75.00
2018-09-29T17:33:27.244Z,74.90
2018-09-29T17:35:55.822Z,75.40
2018-09-29T17:38:24.329Z,75.70
2018-09-29T17:40:52.865Z,76.40
2018-09-29T17:43:21.567Z,77.10
2018-09-29T17:45:50.217Z,79.20
2018-09-29T17:48:18.693Z,80.90
2018-09-29T17:50:47.960Z,81.30
2018-09-29T17:53:16.513Z,82.30
2018-09-29T17:55:45.047Z,82.20
2018-09-29T17:58:13.590Z,81.10
2018-09-29T18:00:42.060Z,80.00
2018-09-29T18:03:10.540Z,80.00
2018-09-29T18:05:39.023Z,80.10
2018-09-29T18:08:07.773Z,80.40
2018-09-29T18:10:36.266Z,80.90
2018-09-29T18:13:04.785Z,81.20
2018-09-29T18:15:33.538Z,81.60
2018-09-29T18:18:02.035Z,81.60
2018-09-29T18:20:30.495Z,81.80
2018-09-29T18:23:00.782Z,81.80
2018-09-29T18:25:30.768Z,82.20
2018-09-29T18:28:01.295Z,82.00
2018-09-29T18:30:29.998Z,82.30
2018-09-29T18:32:58.685Z,82.90
2018-09-29T18:35:27.212Z,83.40
2018-09-29T18:37:55.757Z,83.30
2018-09-29T18:40:24.270Z,83.70
2018-09-29T18:42:52.958Z,83.90
2018-09-29T18:45:21.562Z,83.60
2018-09-29T18:47:50.444Z,84.50
2018-09-29T18:50:19.133Z,83.80
2018-09-29T18:52:47.828Z,84.20
2018-09-29T18:55:16.325Z,83.30
2018-09-29T18:57:45.006Z,83.50
2018-09-29T19:00:13.623Z,83.70
2018-09-29T19:02:42.129Z,83.90
2018-09-29T19:05:10.806Z,84.20
2018-09-29T19:07:39.475Z,84.10
2018-09-29T19:10:07.992Z,84.40
2018-09-29T19:12:36.438Z,85.40
2018-09-29T19:15:05.226Z,87.20
2018-09-29T19:17:34.735Z,90.40
2018-09-29T19:20:04.113Z,90.70
2018-09-29T19:22:33.451Z,91.10
2018-09-29T19:25:02.392Z,91.90
2018-09-29T19:27:31.262Z,91.70
2018-09-29T19:30:00.748Z,91.30
2018-09-29T19:32:29.867Z,91.00
2018-09-29T19:34:58.985Z,90.90
2018-09-29T19:37:28.160Z,92.40
2018-09-29T19:39:57.930Z,94.50
2018-09-29T19:42:27.078Z,95.90
2018-09-29T19:44:55.615Z,95.70
2018-09-29T19:47:24.244Z,97.30
2018-09-29T19:49:52.813Z,98.20
2018-09-29T19:52:21.430Z,99.50
2018-09-29T19:54:50.049Z,99.40
2018-09-29T19:57:18.528Z,98.80
2018-09-29T19:59:47.027Z,98.00
2018-09-29T20:02:15.530Z,98.30
2018-09-29T20:04:43.989Z,98.40
2018-09-29T20:07:12.500Z,98.50
2018-09-29T20:09:41.138Z,99.90
2018-09-29T20:12:09.698Z,99.90
2018-09-29T20:14:38.361Z,99.90
2018-09-29T20:17:07.865Z,99.90
2018-09-29T20:19:36.644Z,99.90
2018-09-29T20:22:08.577Z,99.90
2018-09-29T20:24:37.618Z,99.90
2018-09-29T20:27:06.851Z,99.90
2018-09-29T20:29:35.665Z,99.90
2018-09-29T20:32:04.258Z,99.90
2018-09-29T20:34:32.775Z,99.90
2018-09-29T20:37:01.474Z,99.90
2018-09-29T20:39:30.250Z,99.90
2018-09-29T20:41:59.172Z,99.90
2018-09-29T20:44:28.500Z,99.90
2018-09-29T20:47:24.155Z,99.90
2018-09-29T20:49:54.318Z,99.90
2018-09-29T20:52:23.281Z,99.90
2018-09-29T20:54:51.967Z,99.90
2018-09-29T20:57:20.510Z,99.90
2018-09-29T20:59:49.868Z,99.90
2018-09-29T21:02:18.586Z,99.90
2018-09-29T21:04:47.298Z,99.90
2018-09-29T21:07:16.107Z,99.90
2018-09-29T21:09:44.776Z,99.90
2018-09-29T21:12:13.561Z,99.90
2018-09-29T21:14:42.539Z,99.90
2018-09-29T21:17:11.762Z,99.90
2018-09-29T21:19:40.552Z,99.90
2018-09-29T21:22:09.377Z,99.90
2018-09-29T21:24:38.314Z,99.90
2018-09-29T21:27:07.297Z,99.90
2018-09-29T21:29:36.003Z,99.90
2018-09-29T21:32:04.680Z,99.90
2018-09-29T21:34:33.463Z,99.90
2018-09-29T21:37:02.148Z,99.90
2018-09-29T21:39:30.959Z,99.90
2018-09-29T21:42:00.089Z,99.90
2018-09-29T21:44:28.618Z,99.90
2018-09-29T21:46:57.211Z,99.90
2018-09-29T21:49:25.772Z,99.90
2018-09-29T21:51:54.324Z,99.90
2018-09-29T21:54:23.140Z,99.90
2018-09-29T21:56:52.005Z,99.90
2018-09-29T21:59:20.823Z,99.90
2018-09-29T22:01:49.818Z,99.90
2018-09-29T22:04:18.570Z,99.90
2018-09-29T22:06:47.269Z,99.90
2018-09-29T22:09:23.054Z,99.90
2018-09-29T22:11:52.623Z,99.90
2018-09-29T22:14:21.285Z,99.90
2018-09-29T22:16:49.835Z,99.90
2018-09-29T22:19:18.621Z,99.90
2018-09-29T22:21:47.640Z,99.90
2018-09-29T22:24:16.342Z,99.90
2018-09-29T22:26:45.185Z,99.90
2018-09-29T22:29:13.905Z,99.90
2018-09-29T22:31:42.679Z,99.90
2018-09-29T22:34:11.357Z,99.90
2018-09-29T22:36:40.164Z,99.90
2018-09-29T22:39:10.243Z,99.90
2018-09-29T22:41:38.970Z,99.90
2018-09-29T22:44:08.181Z,99.90
2018-09-29T22:46:36.826Z,99.90
2018-09-29T22:49:06.027Z,99.90
2018-09-29T22:51:34.654Z,99.90
2018-09-29T22:54:03.397Z,99.90
2018-09-29T22:56:32.051Z,99.90
2018-09-29T22:59:00.658Z,99.90
2018-09-29T23:01:29.209Z,99.90
2018-09-29T23:03:57.883Z,99.90
2018-09-29T23:06:27.033Z,99.90
2018-09-29T23:08:55.763Z,99.90
2018-09-29T23:11:24.532Z,99.90
2018-09-29T23:13:54.493Z,99.90
2018-09-29T23:16:23.113Z,99.90
2018-09-29T23:18:51.661Z,99.90
2018-09-29T23:21:20.650Z,99.90
2018-09-29T23:23:49.339Z,99.90
2018-09-29T23:26:17.858Z,99.90
2018-09-29T23:28:46.545Z,99.90
2018-09-29T23:31:15.242Z,99.90
2018-09-29T23:33:43.783Z,99.90
2018-09-29T23:36:12.609Z,99.90
2018-09-29T23:38:41.174Z,99.90
2018-09-29T23:41:09.760Z,99.90
2018-09-29T23:43:38.466Z,99.90
2018-09-29T23:46:07.159Z,99.90
2018-09-29T23:48:36.669Z,99.90
2018-09-29T23:51:05.211Z,99.90
2018-09-29T23:53:33.793Z,99.90
2018-09-29T23:56:02.450Z,99.90
2018-09-29T23:58:30.997Z,99.90
